createdAt,value
2018-09-01T00:01:52.826Z,27.200000000000003
2018-09-01T00:03:52.910Z,27.799999999999997
2018-09-01T00:05:53.096Z,27.799999999999997
2018-09-01T00:07:53.239Z,27.200000000000003
2018-09-01T00:09:53.323Z,27.799999999999997
2018-09-01T00:11:53.466Z,27.799999999999997
2018-09-01T00:13:53.644Z,27.200000000000003
2018-09-01T00:15:53.729Z,27.200000000000003
2018-09-01T00:17:53.873Z,27.799999999999997
2018-09-01T00:19:53.883Z,27.200000000000003
2018-09-01T00:21:54.024Z,27.799999999999997
2018-09-01T00:23:54.170Z,27.200000000000003
2018-09-01T00:25:54.401Z,27.200000000000003
2018-09-01T00:27:54.401Z,27.200000000000003
2018-09-01T00:29:54.751Z,28.299999999999997
2018-09-01T00:31:54.688Z,27.799999999999997
2018-09-01T00:33:54.864Z,27.799999999999997
2018-09-01T00:35:54.930Z,27.200000000000003
2018-09-01T00:37:55.056Z,27.799999999999997
2018-09-01T00:39:55.233Z,27.799999999999997
2018-09-01T00:41:55.629Z,27.799999999999997
2018-09-01T00:43:55.775Z,27.200000000000003
2018-09-01T00:45:55.760Z,27.799999999999997
2018-09-01T00:47:56.010Z,27.200000000000003
2018-09-01T00:49:56.196Z,27.799999999999997
2018-09-01T00:51:56.305Z,27.799999999999997
2018-09-01T00:53:56.596Z,27.200000000000003
2018-09-01T00:55:56.733Z,27.799999999999997
2018-09-01T00:57:56.729Z,27.799999999999997
2018-09-01T00:59:57.089Z,27.799999999999997
2018-09-01T01:01:57.381Z,27.799999999999997
2018-09-01T01:03:57.263Z,27.200000000000003
2018-09-01T01:05:57.612Z,27.799999999999997
2018-09-01T01:07:57.565Z,27.799999999999997
2018-09-01T01:09:57.807Z,27.799999999999997
2018-09-01T01:11:57.766Z,27.200000000000003
2018-09-01T01:13:58.138Z,28.299999999999997
2018-09-01T01:15:58.325Z,28.299999999999997
2018-09-01T01:17:58.562Z,27.200000000000003
2018-09-01T01:19:58.463Z,27.200000000000003
2018-09-01T01:21:58.789Z,27.799999999999997
2018-09-01T01:23:59.031Z,27.200000000000003
2018-09-01T01:25:59.169Z,27.799999999999997
2018-09-01T01:27:59.103Z,27.799999999999997
2018-09-01T01:29:59.333Z,27.200000000000003
2018-09-01T01:31:59.428Z,27.799999999999997
2018-09-01T01:33:59.550Z,28.299999999999997
2018-09-01T01:35:59.758Z,27.799999999999997
2018-09-01T01:37:59.783Z,27.200000000000003
2018-09-01T01:40:00.103Z,27.200000000000003
2018-09-01T01:42:00.025Z,27.200000000000003
2018-09-01T01:44:00.362Z,27.799999999999997
2018-09-01T01:46:00.636Z,27.200000000000003
2018-09-01T01:48:00.524Z,27.200000000000003
2018-09-01T01:50:00.692Z,27.799999999999997
2018-09-01T01:52:00.906Z,27.200000000000003
2018-09-01T01:54:01.088Z,27.200000000000003
2018-09-01T01:56:01.350Z,27.799999999999997
2018-09-01T01:58:01.785Z,27.200000000000003
2018-09-01T02:00:01.592Z,27.799999999999997
2018-09-01T02:02:02.020Z,28.299999999999997
2018-09-01T02:04:02.375Z,27.799999999999997
2018-09-01T02:06:02.845Z,27.200000000000003
2018-09-01T02:08:02.872Z,27.799999999999997
2018-09-01T02:10:03.020Z,27.799999999999997
2018-09-01T02:12:03.215Z,27.200000000000003
2018-09-01T02:14:03.445Z,27.200000000000003
2018-09-01T02:16:03.789Z,27.200000000000003
2018-09-01T02:18:03.540Z,27.200000000000003
2018-09-01T02:20:03.768Z,27.200000000000003
2018-09-01T02:22:04.137Z,27.799999999999997
2018-09-01T02:24:04.279Z,27.200000000000003
2018-09-01T02:26:04.327Z,27.799999999999997
2018-09-01T02:28:04.443Z,27.200000000000003
2018-09-01T02:30:04.549Z,27.799999999999997
2018-09-01T02:32:04.660Z,27.200000000000003
2018-09-01T02:34:04.709Z,27.799999999999997
2018-09-01T02:36:04.912Z,27.200000000000003
2018-09-01T02:38:05.017Z,27.799999999999997
2018-09-01T02:40:05.130Z,27.200000000000003
2018-09-01T02:42:05.264Z,27.799999999999997
2018-09-01T02:44:05.379Z,27.200000000000003
2018-09-01T02:46:05.641Z,27.200000000000003
2018-09-01T02:48:05.731Z,27.200000000000003
2018-09-01T02:50:05.869Z,27.200000000000003
2018-09-01T02:52:06.062Z,27.799999999999997
2018-09-01T02:54:06.263Z,27.200000000000003
2018-09-01T02:56:06.313Z,27.200000000000003
2018-09-01T02:58:06.506Z,27.799999999999997
2018-09-01T03:00:06.518Z,27.200000000000003
2018-09-01T03:02:06.635Z,27.799999999999997
2018-09-01T03:04:06.835Z,27.200000000000003
2018-09-01T03:06:06.845Z,27.799999999999997
2018-09-01T03:08:07.010Z,27.200000000000003
2018-09-01T03:10:07.061Z,27.200000000000003
2018-09-01T03:12:07.184Z,27.200000000000003
2018-09-01T03:14:07.263Z,27.200000000000003
2018-09-01T03:16:07.481Z,27.799999999999997
2018-09-01T03:18:07.631Z,27.200000000000003
2018-09-01T03:20:07.686Z,27.200000000000003
2018-09-01T03:22:07.790Z,27.200000000000003
2018-09-01T03:24:07.927Z,27.200000000000003
2018-09-01T03:26:08.262Z,27.200000000000003
2018-09-01T03:28:08.280Z,27.200000000000003
2018-09-01T03:30:08.309Z,27.200000000000003
2018-09-01T03:32:08.449Z,27.799999999999997
2018-09-01T03:34:08.676Z,27.200000000000003
2018-09-01T03:36:08.612Z,27.200000000000003
2018-09-01T03:38:08.844Z,27.200000000000003
2018-09-01T03:40:08.866Z,27.200000000000003
2018-09-01T03:42:09.102Z,27.200000000000003
2018-09-01T03:44:09.307Z,27.200000000000003
2018-09-01T03:46:09.319Z,27.200000000000003
2018-09-01T03:48:09.489Z,27.200000000000003
2018-09-01T03:50:09.559Z,27.799999999999997
2018-09-01T03:52:09.644Z,27.200000000000003
2018-09-01T03:54:09.848Z,27.200000000000003
2018-09-01T03:56:10.096Z,27.799999999999997
2018-09-01T03:58:10.268Z,27.200000000000003
2018-09-01T04:00:10.223Z,27.799999999999997
2018-09-01T04:02:10.396Z,27.200000000000003
2018-09-01T04:04:10.559Z,27.799999999999997
2018-09-01T04:06:10.680Z,27.799999999999997
2018-09-01T04:08:10.784Z,26.200000000000003
2018-09-01T04:10:10.921Z,27.200000000000003
2018-09-01T04:12:11.187Z,27.200000000000003
2018-09-01T04:14:11.259Z,27.200000000000003
2018-09-01T04:16:11.342Z,27.200000000000003
2018-09-01T04:18:11.442Z,27.200000000000003
2018-09-01T04:20:11.647Z,27.200000000000003
2018-09-01T04:22:11.713Z,27.200000000000003
2018-09-01T04:24:11.880Z,27.200000000000003
2018-09-01T04:26:11.961Z,27.200000000000003
2018-09-01T04:28:12.278Z,27.200000000000003
2018-09-01T04:30:12.288Z,27.200000000000003
2018-09-01T04:32:12.471Z,27.200000000000003
2018-09-01T04:34:12.763Z,27.200000000000003
2018-09-01T04:36:12.635Z,27.200000000000003
2018-09-01T04:38:12.817Z,27.200000000000003
2018-09-01T04:40:12.993Z,26.700000000000003
2018-09-01T04:42:13.048Z,27.200000000000003
2018-09-01T04:44:13.183Z,27.200000000000003
2018-09-01T04:46:13.438Z,27.200000000000003
2018-09-01T04:48:13.417Z,27.200000000000003
2018-09-01T04:50:13.533Z,27.200000000000003
2018-09-01T04:52:13.763Z,27.200000000000003
2018-09-01T04:54:13.811Z,26.700000000000003
2018-09-01T04:56:13.948Z,27.200000000000003
2018-09-01T04:58:14.061Z,27.200000000000003
2018-09-01T05:00:14.190Z,27.200000000000003
2018-09-01T05:02:14.406Z,27.200000000000003
2018-09-01T05:04:14.630Z,27.200000000000003
2018-09-01T05:06:14.697Z,27.200000000000003
2018-09-01T05:08:14.805Z,27.200000000000003
2018-09-01T05:10:14.971Z,27.200000000000003
2018-09-01T05:12:15.086Z,27.200000000000003
2018-09-01T05:14:15.402Z,27.200000000000003
2018-09-01T05:16:15.601Z,27.200000000000003
2018-09-01T05:18:15.567Z,26.200000000000003
2018-09-01T05:20:15.680Z,27.200000000000003
2018-09-01T05:22:15.955Z,27.200000000000003
2018-09-01T05:24:16.066Z,27.200000000000003
2018-09-01T05:26:16.152Z,27.200000000000003
2018-09-01T05:28:16.288Z,27.200000000000003
2018-09-01T05:30:16.427Z,27.200000000000003
2018-09-01T05:32:16.581Z,27.200000000000003
2018-09-01T05:34:16.615Z,27.200000000000003
2018-09-01T05:36:16.819Z,27.200000000000003
2018-09-01T05:38:16.847Z,27.200000000000003
2018-09-01T05:40:17.207Z,27.200000000000003
2018-09-01T05:42:17.232Z,27.799999999999997
2018-09-01T05:44:17.320Z,27.200000000000003
2018-09-01T05:46:17.509Z,27.799999999999997
2018-09-01T05:48:17.580Z,27.200000000000003
2018-09-01T05:50:17.677Z,27.200000000000003
2018-09-01T05:52:17.803Z,27.200000000000003
2018-09-01T05:54:18.019Z,27.200000000000003
2018-09-01T05:56:18.125Z,27.200000000000003
2018-09-01T05:58:18.230Z,27.200000000000003
2018-09-01T06:00:18.425Z,27.200000000000003
2018-09-01T06:02:18.561Z,27.200000000000003
2018-09-01T06:04:18.823Z,27.200000000000003
2018-09-01T06:06:18.974Z,27.799999999999997
2018-09-01T06:08:18.895Z,27.799999999999997
2018-09-01T06:10:19.089Z,27.200000000000003
2018-09-01T06:12:19.394Z,27.200000000000003
2018-09-01T06:14:19.390Z,27.799999999999997
2018-09-01T06:16:19.459Z,27.200000000000003
2018-09-01T06:18:19.699Z,27.200000000000003
2018-09-01T06:20:19.803Z,27.200000000000003
2018-09-01T06:22:19.969Z,27.200000000000003
2018-09-01T06:24:20.099Z,27.200000000000003
2018-09-01T06:26:20.182Z,27.200000000000003
2018-09-01T06:28:20.313Z,27.799999999999997
2018-09-01T06:30:20.535Z,27.200000000000003
2018-09-01T06:32:20.506Z,27.200000000000003
2018-09-01T06:34:20.743Z,27.200000000000003
2018-09-01T06:36:20.794Z,27.200000000000003
2018-09-01T06:38:20.876Z,26.700000000000003
2018-09-01T06:40:21.132Z,27.200000000000003
2018-09-01T06:42:21.228Z,27.200000000000003
2018-09-01T06:44:21.309Z,27.200000000000003
2018-09-01T06:46:21.404Z,27.799999999999997
2018-09-01T06:48:21.528Z,27.200000000000003
2018-09-01T06:50:21.677Z,27.200000000000003
2018-09-01T06:52:21.760Z,27.799999999999997
2018-09-01T06:54:21.898Z,26.700000000000003
2018-09-01T06:56:21.988Z,26.200000000000003
2018-09-01T06:58:22.513Z,26.700000000000003
2018-09-01T07:00:22.304Z,27.200000000000003
2018-09-01T07:02:22.571Z,27.200000000000003
2018-09-01T07:04:22.578Z,26.700000000000003
2018-09-01T07:06:22.755Z,26.700000000000003
2018-09-01T07:08:22.767Z,27.200000000000003
2018-09-01T07:10:22.918Z,26.200000000000003
2018-09-01T07:12:23.197Z,27.200000000000003
2018-09-01T07:14:23.151Z,27.200000000000003
2018-09-01T07:16:23.244Z,27.200000000000003
2018-09-01T07:18:23.429Z,27.200000000000003
2018-09-01T07:20:23.603Z,27.200000000000003
2018-09-01T07:22:23.666Z,27.200000000000003
2018-09-01T07:24:23.684Z,27.200000000000003
2018-09-01T07:26:23.781Z,27.200000000000003
2018-09-01T07:28:24.010Z,27.200000000000003
2018-09-01T07:30:24.236Z,27.200000000000003
2018-09-01T07:32:24.388Z,27.200000000000003
2018-09-01T07:34:24.359Z,27.799999999999997
2018-09-01T07:36:24.544Z,27.799999999999997
2018-09-01T07:38:24.625Z,27.200000000000003
2018-09-01T07:40:24.774Z,27.200000000000003
2018-09-01T07:42:24.830Z,27.200000000000003
2018-09-01T07:44:25.093Z,27.200000000000003
2018-09-01T07:46:25.179Z,27.200000000000003
2018-09-01T07:48:25.315Z,27.200000000000003
2018-09-01T07:50:25.469Z,27.200000000000003
2018-09-01T07:52:25.885Z,27.799999999999997
2018-09-01T07:54:25.931Z,27.200000000000003
2018-09-01T07:56:26.167Z,27.799999999999997
2018-09-01T07:58:26.137Z,27.200000000000003
2018-09-01T08:00:26.472Z,27.200000000000003
2018-09-01T08:02:26.457Z,27.200000000000003
2018-09-01T08:04:26.519Z,27.200000000000003
2018-09-01T08:06:26.774Z,27.799999999999997
2018-09-01T08:08:26.850Z,27.799999999999997
2018-09-01T08:10:26.977Z,27.799999999999997
2018-09-01T08:12:27.302Z,27.799999999999997
2018-09-01T08:14:27.421Z,27.200000000000003
2018-09-01T08:16:27.408Z,27.799999999999997
2018-09-01T08:18:27.652Z,27.799999999999997
2018-09-01T08:20:27.680Z,27.799999999999997
2018-09-01T08:22:28.009Z,27.799999999999997
2018-09-01T08:24:28.017Z,27.200000000000003
2018-09-01T08:26:28.067Z,27.200000000000003
2018-09-01T08:28:28.250Z,27.799999999999997
2018-09-01T08:30:28.565Z,27.200000000000003
2018-09-01T08:32:28.519Z,27.200000000000003
2018-09-01T08:34:28.590Z,27.799999999999997
2018-09-01T08:36:28.674Z,27.200000000000003
2018-09-01T08:38:28.902Z,27.200000000000003
2018-09-01T08:40:28.992Z,27.799999999999997
2018-09-01T08:42:29.251Z,27.799999999999997
2018-09-01T08:44:29.429Z,28.299999999999997
2018-09-01T08:46:29.479Z,27.799999999999997
2018-09-01T08:48:29.621Z,27.799999999999997
2018-09-01T08:50:29.636Z,27.799999999999997
2018-09-01T08:52:29.755Z,27.799999999999997
2018-09-01T08:54:29.863Z,27.200000000000003
2018-09-01T08:56:30.138Z,27.200000000000003
2018-09-01T08:58:30.073Z,27.200000000000003
2018-09-01T09:00:30.255Z,27.799999999999997
2018-09-01T09:02:30.312Z,27.200000000000003
2018-09-01T09:04:30.484Z,27.200000000000003
2018-09-01T09:06:30.637Z,27.799999999999997
2018-09-01T09:08:30.810Z,27.200000000000003
2018-09-01T09:10:30.906Z,27.200000000000003
2018-09-01T09:12:31.045Z,27.799999999999997
2018-09-01T09:14:31.169Z,27.799999999999997
2018-09-01T09:16:31.412Z,27.799999999999997
2018-09-01T09:18:31.518Z,27.799999999999997
2018-09-01T09:20:31.727Z,27.200000000000003
2018-09-01T09:22:31.706Z,27.799999999999997
2018-09-01T09:24:31.825Z,27.799999999999997
2018-09-01T09:26:32.208Z,27.200000000000003
2018-09-01T09:28:32.263Z,27.200000000000003
2018-09-01T09:30:32.423Z,27.200000000000003
2018-09-01T09:32:32.429Z,26.700000000000003
2018-09-01T09:34:32.638Z,27.200000000000003
2018-09-01T09:36:32.662Z,27.200000000000003
2018-09-01T09:38:32.924Z,27.200000000000003
2018-09-01T09:40:33.057Z,27.200000000000003
2018-09-01T09:42:33.337Z,27.799999999999997
2018-09-01T09:44:33.597Z,27.799999999999997
2018-09-01T09:46:33.567Z,27.799999999999997
2018-09-01T09:48:33.763Z,27.799999999999997
2018-09-01T09:50:34.038Z,28.299999999999997
2018-09-01T09:52:34.101Z,27.799999999999997
2018-09-01T09:54:34.229Z,27.200000000000003
2018-09-01T09:56:34.731Z,27.200000000000003
2018-09-01T09:58:34.585Z,27.200000000000003
2018-09-01T10:00:34.930Z,27.200000000000003
2018-09-01T10:02:35.095Z,26.700000000000003
2018-09-01T10:04:35.009Z,27.200000000000003
2018-09-01T10:06:35.176Z,27.200000000000003
2018-09-01T10:08:35.453Z,27.200000000000003
2018-09-01T10:10:35.428Z,27.799999999999997
2018-09-01T10:12:35.544Z,27.200000000000003
2018-09-01T10:14:35.886Z,27.200000000000003
2018-09-01T10:16:35.843Z,27.200000000000003
2018-09-01T10:18:36.073Z,28.299999999999997
2018-09-01T10:20:36.352Z,27.799999999999997
2018-09-01T10:22:36.466Z,27.799999999999997
2018-09-01T10:24:36.536Z,27.200000000000003
2018-09-01T10:26:36.693Z,27.200000000000003
2018-09-01T10:28:36.820Z,27.200000000000003
2018-09-01T10:30:36.853Z,27.799999999999997
2018-09-01T10:32:37.144Z,27.200000000000003
2018-09-01T10:34:37.088Z,27.200000000000003
2018-09-01T10:36:37.192Z,27.799999999999997
2018-09-01T10:38:37.373Z,27.200000000000003
2018-09-01T10:40:37.458Z,27.200000000000003
2018-09-01T10:42:37.690Z,27.799999999999997
2018-09-01T10:44:37.981Z,27.200000000000003
2018-09-01T10:46:37.982Z,27.799999999999997
2018-09-01T10:48:38.021Z,27.799999999999997
2018-09-01T10:50:38.191Z,27.200000000000003
2018-09-01T10:52:38.562Z,27.799999999999997
2018-09-01T10:54:38.472Z,27.200000000000003
2018-09-01T10:56:38.701Z,27.200000000000003
2018-09-01T10:58:38.816Z,27.200000000000003
2018-09-01T11:00:38.847Z,27.200000000000003
2018-09-01T11:02:39.157Z,27.799999999999997
2018-09-01T11:04:39.229Z,27.200000000000003
2018-09-01T11:06:39.408Z,27.200000000000003
2018-09-01T11:08:39.576Z,27.200000000000003
2018-09-01T11:10:39.753Z,27.200000000000003
2018-09-01T11:12:39.866Z,27.200000000000003
2018-09-01T11:14:39.915Z,27.799999999999997
2018-09-01T11:16:40.032Z,27.200000000000003
2018-09-01T11:18:40.288Z,27.200000000000003
2018-09-01T11:20:40.443Z,27.200000000000003
2018-09-01T11:22:40.376Z,27.200000000000003
2018-09-01T11:24:40.581Z,27.200000000000003
2018-09-01T11:26:40.567Z,27.200000000000003
2018-09-01T11:28:40.894Z,27.200000000000003
2018-09-01T11:30:40.986Z,27.200000000000003
2018-09-01T11:32:41.049Z,27.799999999999997
2018-09-01T11:34:41.368Z,27.200000000000003
2018-09-01T11:36:41.511Z,27.200000000000003
2018-09-01T11:38:41.588Z,27.200000000000003
2018-09-01T11:40:41.674Z,27.200000000000003
2018-09-01T11:42:42.254Z,27.799999999999997
2018-09-01T11:44:42.225Z,27.200000000000003
2018-09-01T11:46:42.179Z,26.700000000000003
2018-09-01T11:48:42.254Z,27.200000000000003
2018-09-01T11:50:42.525Z,27.200000000000003
2018-09-01T11:52:42.751Z,27.799999999999997
2018-09-01T11:54:42.692Z,27.200000000000003
2018-09-01T11:56:42.853Z,27.200000000000003
2018-09-01T11:58:43.002Z,27.200000000000003
2018-09-01T12:00:42.986Z,27.200000000000003
2018-09-01T12:02:43.134Z,27.200000000000003
2018-09-01T12:04:43.296Z,27.200000000000003
2018-09-01T12:06:43.446Z,27.200000000000003
2018-09-01T12:08:43.622Z,27.200000000000003
2018-09-01T12:10:43.787Z,27.200000000000003
2018-09-01T12:12:43.796Z,27.200000000000003
2018-09-01T12:14:43.901Z,27.200000000000003
2018-09-01T12:16:44.084Z,27.200000000000003
2018-09-01T12:18:44.386Z,27.200000000000003
2018-09-01T12:20:44.423Z,27.200000000000003
2018-09-01T12:22:44.744Z,27.200000000000003
2018-09-01T12:24:44.603Z,27.200000000000003
2018-09-01T12:26:44.665Z,27.200000000000003
2018-09-01T12:28:44.944Z,27.200000000000003
2018-09-01T12:30:45.013Z,27.200000000000003
2018-09-01T12:32:45.044Z,26.200000000000003
2018-09-01T12:34:45.232Z,26.200000000000003
2018-09-01T12:36:45.460Z,27.200000000000003
2018-09-01T12:38:45.479Z,27.200000000000003
2018-09-01T12:40:45.590Z,26.700000000000003
2018-09-01T12:42:45.830Z,27.200000000000003
2018-09-01T12:44:45.789Z,26.200000000000003
2018-09-01T12:46:45.923Z,26.200000000000003
2018-09-01T12:48:46.083Z,27.200000000000003
2018-09-01T12:50:46.247Z,26.200000000000003
2018-09-01T12:52:46.478Z,26.700000000000003
2018-09-01T12:54:46.558Z,27.200000000000003
2018-09-01T12:56:46.750Z,27.200000000000003
2018-09-01T12:58:46.702Z,27.200000000000003
2018-09-01T13:00:46.820Z,27.200000000000003
2018-09-01T13:02:46.972Z,26.700000000000003
2018-09-01T13:04:47.234Z,27.200000000000003
2018-09-01T13:06:47.151Z,27.200000000000003
2018-09-01T13:08:47.297Z,26.200000000000003
2018-09-01T13:10:47.384Z,27.200000000000003
2018-09-01T13:12:47.565Z,27.200000000000003
2018-09-01T13:14:47.655Z,27.200000000000003
2018-09-01T13:16:47.727Z,26.700000000000003
2018-09-01T13:18:48.041Z,27.200000000000003
2018-09-01T13:20:47.985Z,27.200000000000003
2018-09-01T13:22:48.181Z,26.700000000000003
2018-09-01T13:24:48.298Z,27.200000000000003
2018-09-01T13:26:48.356Z,27.200000000000003
2018-09-01T13:28:48.486Z,27.200000000000003
2018-09-01T13:30:48.590Z,27.200000000000003
2018-09-01T13:32:48.987Z,27.200000000000003
2018-09-01T13:34:48.971Z,27.200000000000003
2018-09-01T13:36:48.906Z,27.200000000000003
2018-09-01T13:38:49.111Z,27.200000000000003
2018-09-01T13:40:49.526Z,27.200000000000003
2018-09-01T13:42:49.279Z,27.200000000000003
2018-09-01T13:44:49.426Z,27.200000000000003
2018-09-01T13:46:49.576Z,26.700000000000003
2018-09-01T13:48:49.719Z,27.200000000000003
2018-09-01T13:50:50.013Z,27.200000000000003
2018-09-01T13:52:50.092Z,27.200000000000003
2018-09-01T13:54:50.094Z,26.700000000000003
2018-09-01T13:56:50.182Z,26.700000000000003
2018-09-01T13:58:50.273Z,26.700000000000003
2018-09-01T14:00:50.417Z,27.200000000000003
2018-09-01T14:02:50.755Z,27.200000000000003
2018-09-01T14:04:50.773Z,27.200000000000003
2018-09-01T14:06:50.730Z,27.200000000000003
2018-09-01T14:08:50.958Z,27.200000000000003
2018-09-01T14:10:51.089Z,27.200000000000003
2018-09-01T14:12:51.272Z,27.200000000000003
2018-09-01T14:14:51.597Z,26.200000000000003
2018-09-01T14:16:51.604Z,26.200000000000003
2018-09-01T14:18:51.674Z,27.200000000000003
2018-09-01T14:20:51.731Z,27.200000000000003
2018-09-01T14:22:51.783Z,27.200000000000003
2018-09-01T14:24:52.043Z,26.700000000000003
2018-09-01T14:26:52.266Z,27.200000000000003
2018-09-01T14:28:52.240Z,27.200000000000003
2018-09-01T14:30:52.446Z,26.700000000000003
2018-09-01T14:32:52.573Z,26.200000000000003
2018-09-01T14:34:52.818Z,27.200000000000003
2018-09-01T14:36:53.006Z,27.200000000000003
2018-09-01T14:38:53.171Z,26.200000000000003
2018-09-01T14:40:53.442Z,26.700000000000003
2018-09-01T14:42:53.225Z,27.200000000000003
2018-09-01T14:44:53.498Z,26.200000000000003
2018-09-01T14:46:53.565Z,27.200000000000003
2018-09-01T14:48:53.668Z,26.700000000000003
2018-09-01T14:50:53.758Z,26.700000000000003
2018-09-01T14:52:53.832Z,27.200000000000003
2018-09-01T14:54:53.961Z,26.200000000000003
2018-09-01T14:56:54.154Z,27.200000000000003
2018-09-01T14:58:54.203Z,26.700000000000003
2018-09-01T15:00:54.413Z,26.700000000000003
2018-09-01T15:02:54.587Z,27.200000000000003
2018-09-01T15:04:54.590Z,26.700000000000003
2018-09-01T15:06:54.880Z,26.700000000000003
2018-09-01T15:08:55.025Z,26.200000000000003
2018-09-01T15:10:55.083Z,26.200000000000003
2018-09-01T15:12:55.419Z,26.700000000000003
2018-09-01T15:14:55.310Z,26.200000000000003
2018-09-01T15:16:55.523Z,26.200000000000003
2018-09-01T15:18:55.636Z,25.6
2018-09-01T15:20:55.762Z,25.6
2018-09-01T15:22:55.941Z,25.6
2018-09-01T15:24:56.008Z,26.200000000000003
2018-09-01T15:26:56.267Z,26.200000000000003
2018-09-01T15:28:56.310Z,26.200000000000003
2018-09-01T15:30:56.755Z,26.200000000000003
2018-09-01T15:32:56.709Z,26.200000000000003
2018-09-01T15:34:56.748Z,26.200000000000003
2018-09-01T15:36:56.839Z,25.6
2018-09-01T15:38:57.054Z,25.6
2018-09-01T15:40:57.133Z,25.6
2018-09-01T15:42:57.386Z,25.6
2018-09-01T15:44:57.397Z,25.6
2018-09-01T15:46:57.411Z,25.1
2018-09-01T15:48:57.709Z,26.200000000000003
2018-09-01T15:50:57.699Z,26.200000000000003
2018-09-01T15:52:57.786Z,26.200000000000003
2018-09-01T15:54:58.169Z,26.200000000000003
2018-09-01T15:56:58.135Z,26.200000000000003
2018-09-01T15:58:58.314Z,25.6
2018-09-01T16:00:58.378Z,25.6
2018-09-01T16:02:58.481Z,25.1
2018-09-01T16:04:58.697Z,25.6
2018-09-01T16:06:58.925Z,25.6
2018-09-01T16:08:58.866Z,25.1
2018-09-01T16:10:59.107Z,25.1
2018-09-01T16:12:59.331Z,25.1
2018-09-01T16:14:59.254Z,25.1
2018-09-01T16:16:59.412Z,24.5
2018-09-01T16:18:59.657Z,25.1
2018-09-01T16:20:59.886Z,24.5
2018-09-01T16:22:59.881Z,24.5
2018-09-01T16:25:00.083Z,24.5
2018-09-01T16:27:00.248Z,24
2018-09-01T16:29:00.266Z,25.1
2018-09-01T16:31:00.526Z,25.1
2018-09-01T16:33:00.714Z,26.200000000000003
2018-09-01T16:35:00.605Z,26.200000000000003
2018-09-01T16:37:00.993Z,26.200000000000003
2018-09-01T16:39:00.998Z,26.200000000000003
2018-09-01T16:41:01.119Z,26.700000000000003
2018-09-01T16:43:01.208Z,26.700000000000003
2018-09-01T16:45:01.760Z,26.700000000000003
2018-09-01T16:47:01.627Z,26.200000000000003
2018-09-01T16:49:01.591Z,26.700000000000003
2018-09-01T16:51:01.931Z,27.200000000000003
2018-09-01T16:53:02.075Z,26.700000000000003
2018-09-01T16:55:02.125Z,27.200000000000003
2018-09-01T16:57:02.406Z,27.200000000000003
2018-09-01T16:59:02.501Z,27.799999999999997
2018-09-01T17:01:02.819Z,27.200000000000003
2018-09-01T17:03:03.027Z,27.200000000000003
2018-09-01T17:05:03.046Z,27.200000000000003
2018-09-01T17:07:03.263Z,27.200000000000003
2018-09-01T17:09:03.601Z,27.200000000000003
2018-09-01T17:11:03.584Z,27.799999999999997
2018-09-01T17:13:03.743Z,27.200000000000003
2018-09-01T17:15:04.141Z,27.200000000000003
2018-09-01T17:17:04.350Z,27.200000000000003
2018-09-01T17:19:04.165Z,27.200000000000003
2018-09-01T17:21:04.493Z,27.200000000000003
2018-09-01T17:23:04.425Z,27.200000000000003
2018-09-01T17:25:04.484Z,27.200000000000003
2018-09-01T17:27:04.776Z,27.200000000000003
2018-09-01T17:29:04.796Z,27.200000000000003
2018-09-01T17:31:05.041Z,26.700000000000003
2018-09-01T17:33:05.092Z,27.200000000000003
2018-09-01T17:35:05.119Z,26.200000000000003
2018-09-01T17:37:05.263Z,27.200000000000003
2018-09-01T17:39:05.433Z,26.700000000000003
2018-09-01T17:41:05.532Z,26.700000000000003
2018-09-01T17:43:05.747Z,26.700000000000003
2018-09-01T17:45:05.815Z,27.200000000000003
2018-09-01T17:47:05.973Z,27.200000000000003
2018-09-01T17:49:06.056Z,27.200000000000003
2018-09-01T17:51:06.256Z,26.700000000000003
2018-09-01T17:53:06.353Z,26.700000000000003
2018-09-01T17:55:06.480Z,27.200000000000003
2018-09-01T17:57:06.542Z,27.200000000000003
2018-09-01T17:59:06.725Z,27.200000000000003
2018-09-01T18:01:06.847Z,27.200000000000003
2018-09-01T18:03:07.161Z,27.200000000000003
2018-09-01T18:05:07.027Z,27.200000000000003
2018-09-01T18:07:07.502Z,27.200000000000003
2018-09-01T18:09:07.425Z,26.700000000000003
2018-09-01T18:11:07.438Z,27.200000000000003
2018-09-01T18:13:07.529Z,26.700000000000003
2018-09-01T18:15:07.829Z,27.200000000000003
2018-09-01T18:17:07.945Z,27.200000000000003
2018-09-01T18:19:08.463Z,27.200000000000003
2018-09-01T18:21:08.342Z,27.799999999999997
2018-09-01T18:23:08.449Z,27.200000000000003
2018-09-01T18:25:08.429Z,27.200000000000003
2018-09-01T18:27:08.551Z,27.200000000000003